Terminal Aerodrome Forecast
Issued by NWS

Home | Current Version | Previous Version | Text Only | Print | Product List | Glossary On
Versions: 1 2 3 4 5 6 7 8 9 10 11 12 13 14 15 16 17 18 19 20 21 22 23 24
000
FTUS43 KAPX 040202 AAA
TAFMBL
TAF AMD
KMBL 040202Z 0402/0424 27012KT P6SM SCT025
     FM040400 30014G22KT P6SM BKN035
     FM040600 31014G22KT P6SM VCSH BKN035
     FM041200 29014G22KT P6SM VCSH SCT025 BKN035
      AMD LTD TO CLD VIS AND WIND=

USA.gov is the U.S. government's official web portal to all federal, state and local government web resources and services.